Highgate Falls, Vermont
Current Conditions -  °F | °C
As of 5:15 PM on Thursday 23 Oct 2014 (Local Time) from KFSO Reporting Station
Moderate Rain Moderate Rain  
Wind Chill: 36°   Ceiling: 800
Heat Index: 42°   Visibility: 7mi
Dew Point: 41°   Wind: 12mph
Humidity: 95%   Direction: 360°N
Pressure: 29.94"   Gusts: 20mph
Location:  44.958°N, 72.9958°W
Report Text: KFSO 232115Z AUTO 36010G17KT 7SM RA OVC008 06/05 A2994 RMK AO2 T00580051
Loading
Personal Weather Stations






























Interactive Weather Map
Tropical Storm Tracking
New forecast layout! Learn more

10-Day Weather Forecast

Advertisements
Track Severe Weather on mobile